createdAt,value
2023-05-14T00:00:53.500Z,57.99
2023-05-14T00:01:53.614Z,58.20
2023-05-14T00:02:53.640Z,58.18
2023-05-14T00:03:53.642Z,58.17
2023-05-14T00:05:53.581Z,58.18
2023-05-14T00:06:53.516Z,58.17
2023-05-14T00:08:53.498Z,58.17
2023-05-14T00:09:53.518Z,58.17
2023-05-14T00:11:53.597Z,58.08
2023-05-14T00:12:53.534Z,58.08
2023-05-14T00:13:53.563Z,58.16
2023-05-14T00:14:53.587Z,58.29
2023-05-14T00:15:53.652Z,58.29
2023-05-14T00:16:53.577Z,58.44
2023-05-14T00:17:53.618Z,58.52
2023-05-14T00:18:53.608Z,58.50
2023-05-14T00:19:53.569Z,58.69
2023-05-14T00:20:53.550Z,58.69
2023-05-14T00:21:53.601Z,58.61
2023-05-14T00:22:53.589Z,58.73
2023-05-14T00:25:53.551Z,58.57
2023-05-14T00:26:53.570Z,58.54
2023-05-14T00:27:53.581Z,58.67
2023-05-14T00:28:53.596Z,58.78
2023-05-14T00:29:53.588Z,58.76
2023-05-14T00:31:53.719Z,58.85
2023-05-14T00:32:53.665Z,58.75
2023-05-14T00:33:53.569Z,58.75
2023-05-14T00:34:53.626Z,58.97
2023-05-14T00:35:53.586Z,58.83
2023-05-14T00:37:53.623Z,58.89
2023-05-14T00:38:53.599Z,58.89
2023-05-14T00:40:53.656Z,59.00
2023-05-14T00:41:53.630Z,59.03
2023-05-14T00:42:53.659Z,59.03
2023-05-14T00:44:53.650Z,59.00
2023-05-14T00:45:53.643Z,59.00
2023-05-14T00:48:53.690Z,58.94
2023-05-14T00:51:53.612Z,58.93
2023-05-14T00:52:53.671Z,59.00
2023-05-14T00:53:53.672Z,59.02
2023-05-14T00:55:53.710Z,58.98
2023-05-14T00:56:53.681Z,59.10
2023-05-14T00:57:53.653Z,59.17
2023-05-14T00:58:53.675Z,59.14
2023-05-14T00:59:53.663Z,59.14
2023-05-14T01:00:53.736Z,58.88
2023-05-14T01:02:53.794Z,58.92
2023-05-14T01:03:53.809Z,58.88
2023-05-14T01:04:53.679Z,59.06
2023-05-14T01:06:53.722Z,59.19
2023-05-14T01:07:53.642Z,59.19
2023-05-14T01:08:53.709Z,59.02
2023-05-14T01:11:53.695Z,58.99
2023-05-14T01:12:53.691Z,58.99
2023-05-14T01:15:53.716Z,59.10
2023-05-14T01:16:53.809Z,59.05
2023-05-14T01:18:53.740Z,59.16
2023-05-14T01:20:53.680Z,59.29
2023-05-14T01:21:53.739Z,59.28
2023-05-14T01:22:53.767Z,59.23
2023-05-14T01:23:53.713Z,59.23
2023-05-14T01:24:53.767Z,59.48
2023-05-14T01:25:53.716Z,59.48
2023-05-14T01:27:53.780Z,59.51
2023-05-14T01:28:53.748Z,59.38
2023-05-14T01:30:53.729Z,59.30
2023-05-14T01:32:53.821Z,59.40
2023-05-14T01:35:53.777Z,59.54
2023-05-14T01:36:53.788Z,59.42
2023-05-14T01:37:53.800Z,59.46
2023-05-14T01:38:53.743Z,59.46
2023-05-14T01:39:53.792Z,59.53
2023-05-14T01:40:53.774Z,59.46
2023-05-14T01:41:53.792Z,59.44
2023-05-14T01:42:53.826Z,59.34
2023-05-14T01:43:53.723Z,59.34
2023-05-14T01:44:53.790Z,59.49
2023-05-14T01:45:53.752Z,59.49
2023-05-14T01:47:53.895Z,59.22
2023-05-14T01:48:53.729Z,59.22
2023-05-14T01:52:53.821Z,59.19
2023-05-14T01:53:53.840Z,59.24
2023-05-14T01:54:53.822Z,59.14
2023-05-14T01:55:53.820Z,59.17
2023-05-14T01:56:53.760Z,59.17
2023-05-14T01:57:53.840Z,59.26
2023-05-14T01:58:53.828Z,59.16
2023-05-14T01:59:53.788Z,59.16
2023-05-14T02:00:53.829Z,59.02
2023-05-14T02:01:53.981Z,58.99
2023-05-14T02:05:53.862Z,58.96
2023-05-14T02:06:53.838Z,59.03
2023-05-14T02:07:53.873Z,59.06
2023-05-14T02:10:53.833Z,58.98
2023-05-14T02:11:53.877Z,59.10
2023-05-14T02:13:53.847Z,59.00
2023-05-14T02:14:53.888Z,59.08
2023-05-14T02:17:53.883Z,59.10
2023-05-14T02:18:53.889Z,59.15
2023-05-14T02:19:53.847Z,59.15
2023-05-14T02:21:53.869Z,59.05
2023-05-14T02:25:53.850Z,58.95
2023-05-14T02:26:53.896Z,59.02
2023-05-14T02:27:53.893Z,59.00
2023-05-14T02:30:53.846Z,58.97
2023-05-14T02:32:54.084Z,58.88
2023-05-14T02:34:53.910Z,58.97
2023-05-14T02:36:53.944Z,59.05
2023-05-14T02:39:53.953Z,58.98
2023-05-14T02:41:53.951Z,58.83
2023-05-14T02:42:53.942Z,58.85
2023-05-14T02:43:53.880Z,58.85
2023-05-14T02:44:53.922Z,58.87
2023-05-14T02:45:53.934Z,58.78
2023-05-14T02:46:53.944Z,58.83
2023-05-14T02:47:54.011Z,58.90
2023-05-14T02:48:53.954Z,58.95
2023-05-14T02:49:53.979Z,58.96
2023-05-14T02:51:53.898Z,59.03
2023-05-14T02:52:53.963Z,59.09
2023-05-14T02:53:53.906Z,59.09
2023-05-14T02:54:53.975Z,59.08
2023-05-14T02:55:53.964Z,59.10
2023-05-14T02:56:53.939Z,59.10
2023-05-14T02:59:53.970Z,59.05
2023-05-14T03:04:53.972Z,59.06
2023-05-14T03:05:53.962Z,59.02
2023-05-14T03:06:53.987Z,59.03
2023-05-14T03:07:53.977Z,58.94
2023-05-14T03:08:54.011Z,58.93
2023-05-14T03:09:54.011Z,58.93
2023-05-14T03:10:54.026Z,59.08
2023-05-14T03:12:53.970Z,59.11
2023-05-14T03:13:54.048Z,59.01
2023-05-14T03:14:54.046Z,59.03
2023-05-14T03:15:53.993Z,59.04
2023-05-14T03:16:54.045Z,59.04
2023-05-14T03:17:54.072Z,59.04
2023-05-14T03:18:54.052Z,58.88
2023-05-14T03:19:54.025Z,59.13
2023-05-14T03:20:54.046Z,59.26
2023-05-14T03:22:54.016Z,59.28
2023-05-14T03:23:54.046Z,59.34
2023-05-14T03:24:54.075Z,59.29
2023-05-14T03:25:54.045Z,59.29
2023-05-14T03:26:54.041Z,59.51
2023-05-14T03:28:54.035Z,59.67
2023-05-14T03:29:54.055Z,59.63
2023-05-14T03:31:54.059Z,59.58
2023-05-14T03:32:54.123Z,59.65
2023-05-14T03:33:54.094Z,59.74
2023-05-14T03:36:54.096Z,59.61
2023-05-14T03:37:54.059Z,59.66
2023-05-14T03:38:54.030Z,59.66
2023-05-14T03:39:54.003Z,59.60
2023-05-14T03:40:54.085Z,59.48
2023-05-14T03:42:54.080Z,59.35
2023-05-14T03:44:54.082Z,59.34
2023-05-14T03:45:54.093Z,59.34
2023-05-14T03:46:54.110Z,59.39
2023-05-14T03:51:54.092Z,59.46
2023-05-14T03:54:54.115Z,59.38
2023-05-14T03:56:54.090Z,59.51
2023-05-14T03:57:54.151Z,59.43
2023-05-14T03:58:54.109Z,59.43
2023-05-14T03:59:54.084Z,59.43
2023-05-14T04:00:54.117Z,59.32
2023-05-14T04:01:54.094Z,59.32
2023-05-14T04:04:54.251Z,59.14
2023-05-14T04:05:54.130Z,58.98
2023-05-14T04:06:54.154Z,59.06
2023-05-14T04:07:54.143Z,59.20
2023-05-14T04:08:54.177Z,59.28
2023-05-14T04:09:54.146Z,59.28
2023-05-14T04:10:54.154Z,59.27
2023-05-14T04:11:54.149Z,59.19
2023-05-14T04:12:54.178Z,59.24
2023-05-14T04:16:54.181Z,59.27
2023-05-14T04:17:54.191Z,59.27
2023-05-14T04:18:54.288Z,59.19
2023-05-14T04:20:54.176Z,59.09
2023-05-14T04:21:54.163Z,59.11
2023-05-14T04:22:54.178Z,59.30
2023-05-14T04:24:54.153Z,59.22
2023-05-14T04:25:54.238Z,59.20
2023-05-14T04:26:54.205Z,59.31
2023-05-14T04:28:54.198Z,59.17
2023-05-14T04:29:54.200Z,59.05
2023-05-14T04:30:54.199Z,59.05
2023-05-14T04:31:54.235Z,58.92
2023-05-14T04:33:54.237Z,58.88
2023-05-14T04:34:54.236Z,58.84
2023-05-14T04:35:54.158Z,58.84
2023-05-14T04:36:54.203Z,58.73
2023-05-14T04:37:54.222Z,58.78
2023-05-14T04:38:54.213Z,58.78
2023-05-14T04:39:54.508Z,58.61
2023-05-14T04:40:54.180Z,58.61
2023-05-14T04:41:54.226Z,58.43
2023-05-14T04:42:54.248Z,58.35
2023-05-14T04:43:54.221Z,58.35
2023-05-14T04:44:54.241Z,58.39
2023-05-14T04:45:54.354Z,58.49
2023-05-14T04:46:54.241Z,58.59
2023-05-14T04:47:54.316Z,58.62
2023-05-14T04:48:54.216Z,58.62
2023-05-14T04:49:54.224Z,58.69
2023-05-14T04:50:54.190Z,58.72
2023-05-14T04:51:54.253Z,58.40
2023-05-14T04:53:54.228Z,58.47
2023-05-14T04:54:54.259Z,58.51
2023-05-14T04:56:54.235Z,58.60
2023-05-14T04:57:54.281Z,58.58
2023-05-14T04:58:54.290Z,58.32
2023-05-14T04:59:54.306Z,58.45
2023-05-14T05:00:54.307Z,58.53
2023-05-14T05:02:54.325Z,58.31
2023-05-14T05:03:54.344Z,58.30
2023-05-14T05:05:54.320Z,58.22
2023-05-14T05:06:54.323Z,58.14
2023-05-14T05:07:54.324Z,58.18
2023-05-14T05:08:54.326Z,58.06
2023-05-14T05:10:54.331Z,58.02
2023-05-14T05:11:54.266Z,58.02
2023-05-14T05:13:54.323Z,57.80
2023-05-14T05:14:54.319Z,57.61
2023-05-14T05:15:54.356Z,57.54
2023-05-14T05:16:54.287Z,57.54
2023-05-14T05:17:54.297Z,57.79
2023-05-14T05:18:54.366Z,57.86
2023-05-14T05:19:54.336Z,58.01
2023-05-14T05:20:54.337Z,58.04
2023-05-14T05:21:54.344Z,57.77
2023-05-14T05:22:54.276Z,57.77
2023-05-14T05:23:54.342Z,57.54
2023-05-14T05:24:54.351Z,57.45
2023-05-14T05:25:54.327Z,57.45
2023-05-14T05:26:54.379Z,57.24
2023-05-14T05:27:54.393Z,57.39
2023-05-14T05:28:54.361Z,57.39
2023-05-14T05:29:54.365Z,57.37
2023-05-14T05:30:54.362Z,57.37
2023-05-14T05:31:54.415Z,57.34
2023-05-14T05:32:54.372Z,57.15
2023-05-14T05:33:54.376Z,57.50
2023-05-14T05:34:54.387Z,57.53
2023-05-14T05:36:54.344Z,57.34
2023-05-14T05:41:54.435Z,57.41
2023-05-14T05:43:54.328Z,57.49
2023-05-14T05:44:54.389Z,57.66
2023-05-14T05:45:54.389Z,57.54
2023-05-14T05:46:54.466Z,57.60
2023-05-14T05:48:54.394Z,57.64
2023-05-14T05:49:54.377Z,57.82
2023-05-14T05:50:54.399Z,57.88
2023-05-14T05:51:54.361Z,57.97
2023-05-14T05:52:54.421Z,57.67
2023-05-14T05:53:54.401Z,57.66
2023-05-14T05:54:54.435Z,57.80
2023-05-14T05:55:54.414Z,57.68
2023-05-14T05:58:54.468Z,57.62
2023-05-14T06:00:54.451Z,57.63
2023-05-14T06:02:54.437Z,57.55
2023-05-14T06:03:54.421Z,57.66
2023-05-14T06:04:54.474Z,57.66
2023-05-14T06:05:54.427Z,57.52
2023-05-14T06:06:54.435Z,57.62
2023-05-14T06:07:54.463Z,57.81
2023-05-14T06:08:54.434Z,57.85
2023-05-14T06:09:54.416Z,57.85
2023-05-14T06:10:54.481Z,57.64
2023-05-14T06:11:54.501Z,57.48
2023-05-14T06:12:54.497Z,57.42
2023-05-14T06:13:54.489Z,57.67
2023-05-14T06:14:54.476Z,57.76
2023-05-14T06:15:54.510Z,57.47
2023-05-14T06:16:54.566Z,57.73
2023-05-14T06:19:54.517Z,57.90
2023-05-14T06:21:54.497Z,57.62
2023-05-14T06:23:54.508Z,57.62
2023-05-14T06:24:54.509Z,57.88
2023-05-14T06:26:54.532Z,58.16
2023-05-14T06:27:54.486Z,58.38
2023-05-14T06:28:54.534Z,58.38
2023-05-14T06:29:54.512Z,58.29
2023-05-14T06:31:54.534Z,58.53
2023-05-14T06:32:54.565Z,58.53
2023-05-14T06:33:54.534Z,58.71
2023-05-14T06:34:54.530Z,58.86
2023-05-14T06:35:54.493Z,58.86
2023-05-14T06:36:54.517Z,59.06
2023-05-14T06:38:54.520Z,59.28
2023-05-14T06:39:57.019Z,59.30
2023-05-14T06:40:54.563Z,59.50
2023-05-14T06:41:54.469Z,59.50
2023-05-14T06:42:54.536Z,59.40
2023-05-14T06:43:54.526Z,59.59
2023-05-14T06:44:54.537Z,59.57
2023-05-14T06:45:54.555Z,59.50
2023-05-14T06:46:54.568Z,59.66
2023-05-14T06:47:54.642Z,59.84
2023-05-14T06:48:55.303Z,59.70
2023-05-14T06:49:54.580Z,59.53
2023-05-14T06:50:54.570Z,59.52
2023-05-14T06:51:54.503Z,59.52
2023-05-14T06:52:54.584Z,59.67
2023-05-14T06:53:54.580Z,59.59
2023-05-14T06:55:54.546Z,59.72
2023-05-14T06:56:54.533Z,59.72
2023-05-14T06:57:54.592Z,59.59
2023-05-14T06:58:54.560Z,59.78
2023-05-14T06:59:54.635Z,59.95
2023-05-14T07:00:54.596Z,60.00
2023-05-14T07:01:54.559Z,59.90
2023-05-14T07:02:54.656Z,59.82
2023-05-14T07:03:54.640Z,60.00
2023-05-14T07:04:54.544Z,60.00
2023-05-14T07:05:54.591Z,60.51
2023-05-14T07:06:54.615Z,60.45
2023-05-14T07:07:54.581Z,60.49
2023-05-14T07:09:54.568Z,60.27
2023-05-14T07:10:54.644Z,60.56
2023-05-14T07:12:54.655Z,61.53
2023-05-14T07:13:54.639Z,61.32
2023-05-14T07:15:54.636Z,61.46
2023-05-14T07:16:54.691Z,61.42
2023-05-14T07:19:54.618Z,61.15
2023-05-14T07:20:54.662Z,61.74
2023-05-14T07:21:54.641Z,61.82
2023-05-14T07:23:54.644Z,61.91
2023-05-14T07:24:54.655Z,61.80
2023-05-14T07:25:54.626Z,61.61
2023-05-14T07:26:54.632Z,61.81
2023-05-14T07:27:54.600Z,61.81
2023-05-14T07:28:54.638Z,61.53
2023-05-14T07:29:54.666Z,61.28
2023-05-14T07:30:54.675Z,61.39
2023-05-14T07:31:54.707Z,61.64
2023-05-14T07:32:54.719Z,61.48
2023-05-14T07:33:54.654Z,61.58
2023-05-14T07:34:54.692Z,61.30
2023-05-14T07:35:54.643Z,61.30
2023-05-14T07:36:54.669Z,60.79
2023-05-14T07:37:54.687Z,60.67
2023-05-14T07:38:54.699Z,60.50
2023-05-14T07:39:54.665Z,60.50
2023-05-14T07:40:54.654Z,60.61
2023-05-14T07:41:54.723Z,60.19
2023-05-14T07:42:54.700Z,60.13
2023-05-14T07:43:54.662Z,60.13
2023-05-14T07:44:54.966Z,60.00
2023-05-14T07:45:54.733Z,60.34
2023-05-14T07:46:54.748Z,60.32
2023-05-14T07:47:54.824Z,59.64
2023-05-14T07:48:54.652Z,59.64
2023-05-14T07:49:54.722Z,59.20
2023-05-14T07:50:54.666Z,59.20
2023-05-14T07:51:54.736Z,58.20
2023-05-14T07:52:54.730Z,57.66
2023-05-14T07:53:54.679Z,57.66
2023-05-14T07:54:54.727Z,56.37
2023-05-14T07:55:54.762Z,55.44
2023-05-14T07:58:54.772Z,54.77
2023-05-14T08:01:54.761Z,54.54
2023-05-14T08:02:54.955Z,54.92
2023-05-14T08:03:54.907Z,54.92
2023-05-14T08:04:54.742Z,54.75
2023-05-14T08:05:54.761Z,54.87
2023-05-14T08:06:54.697Z,54.87
2023-05-14T08:07:54.741Z,55.10
2023-05-14T08:08:54.788Z,55.07
2023-05-14T08:09:54.726Z,55.07
2023-05-14T08:10:54.792Z,55.23
2023-05-14T08:11:54.715Z,55.23
2023-05-14T08:12:54.819Z,54.79
2023-05-14T08:13:54.774Z,54.97
2023-05-14T08:14:54.742Z,54.97
2023-05-14T08:15:54.780Z,55.30
2023-05-14T08:16:54.836Z,55.30
2023-05-14T08:17:54.980Z,55.50
2023-05-14T08:18:54.902Z,55.78
2023-05-14T08:19:54.751Z,55.78
2023-05-14T08:20:54.808Z,56.13
2023-05-14T08:21:54.805Z,56.16
2023-05-14T08:22:54.748Z,56.28
2023-05-14T08:23:54.755Z,56.51
2023-05-14T08:24:54.797Z,56.76
2023-05-14T08:25:54.825Z,56.41
2023-05-14T08:27:54.772Z,56.39
2023-05-14T08:28:54.827Z,55.98
2023-05-14T08:29:54.806Z,55.80
2023-05-14T08:30:54.859Z,55.74
2023-05-14T08:31:54.787Z,55.74
2023-05-14T08:32:54.857Z,55.63
2023-05-14T08:33:54.836Z,54.97
2023-05-14T08:34:54.851Z,54.72
2023-05-14T08:35:54.786Z,54.72
2023-05-14T08:36:54.813Z,54.94
2023-05-14T08:37:54.852Z,54.27
2023-05-14T08:38:54.850Z,53.70
2023-05-14T08:39:54.815Z,53.70
2023-05-14T08:40:54.834Z,53.61
2023-05-14T08:41:54.832Z,53.11
2023-05-14T08:42:54.833Z,51.50
2023-05-14T08:43:54.854Z,50.85
2023-05-14T08:44:54.844Z,51.20
2023-05-14T08:45:54.939Z,51.20
2023-05-14T08:46:54.862Z,50.33
2023-05-14T08:47:54.937Z,50.42
2023-05-14T08:48:54.839Z,50.42
2023-05-14T08:49:54.867Z,50.49
2023-05-14T08:50:54.879Z,50.33
2023-05-14T08:51:54.867Z,49.07
2023-05-14T08:52:54.858Z,49.28
2023-05-14T08:53:54.859Z,49.28
2023-05-14T08:54:54.899Z,48.30
2023-05-14T08:55:54.865Z,46.80
2023-05-14T08:56:54.842Z,47.14
2023-05-14T08:57:54.883Z,47.48
2023-05-14T08:58:54.916Z,46.34
2023-05-14T08:59:54.864Z,45.69
2023-05-14T09:00:54.898Z,45.85
2023-05-14T09:01:54.877Z,45.85
2023-05-14T09:02:54.949Z,45.44
2023-05-14T09:03:54.921Z,44.69
2023-05-14T09:04:54.872Z,44.69
2023-05-14T09:05:54.906Z,45.02
2023-05-14T09:06:54.867Z,45.35
2023-05-14T09:07:54.934Z,45.00
2023-05-14T09:08:54.924Z,45.01
2023-05-14T09:09:54.897Z,44.71
2023-05-14T09:10:54.902Z,44.85
2023-05-14T09:11:54.865Z,44.85
2023-05-14T09:12:54.902Z,44.21
2023-05-14T09:13:54.917Z,44.30
2023-05-14T09:14:54.873Z,44.30
2023-05-14T09:15:54.988Z,45.72
2023-05-14T09:16:54.929Z,46.08
2023-05-14T09:17:55.014Z,45.99
2023-05-14T09:18:54.924Z,45.99
2023-05-14T09:19:54.910Z,45.64
2023-05-14T09:20:54.991Z,45.82
2023-05-14T09:21:54.937Z,45.85
2023-05-14T09:22:54.954Z,46.02
2023-05-14T09:23:54.953Z,45.82
2023-05-14T09:24:54.930Z,44.89
2023-05-14T09:25:54.983Z,45.28
2023-05-14T09:26:54.993Z,46.06
2023-05-14T09:27:55.691Z,45.87
2023-05-14T09:28:54.985Z,46.13
2023-05-14T09:29:54.979Z,45.99
2023-05-14T09:30:54.991Z,45.51
2023-05-14T09:31:55.034Z,45.40
2023-05-14T09:32:54.972Z,45.40
2023-05-14T09:33:54.977Z,45.96
2023-05-14T09:34:54.987Z,46.27
2023-05-14T09:35:56.428Z,46.40
2023-05-14T09:36:54.974Z,46.74
2023-05-14T09:37:54.968Z,46.74
2023-05-14T09:38:55.024Z,47.22
2023-05-14T09:39:54.959Z,47.22
2023-05-14T09:40:54.961Z,47.49
2023-05-14T09:41:54.994Z,47.31
2023-05-14T09:43:55.015Z,46.85
2023-05-14T09:44:55.014Z,47.37
2023-05-14T09:45:55.005Z,47.32
2023-05-14T09:46:55.048Z,47.85
2023-05-14T09:47:55.113Z,48.53
2023-05-14T09:48:55.013Z,49.16
2023-05-14T09:49:55.031Z,49.59
2023-05-14T09:50:54.982Z,49.59
2023-05-14T09:51:55.038Z,50.21
2023-05-14T09:52:55.030Z,50.03
2023-05-14T09:53:54.997Z,50.03
2023-05-14T09:54:55.007Z,49.97
2023-05-14T09:55:55.022Z,50.73
2023-05-14T09:56:55.722Z,51.07
2023-05-14T09:57:55.026Z,52.55
2023-05-14T09:58:55.033Z,52.55
2023-05-14T09:59:55.016Z,52.95
2023-05-14T10:00:55.072Z,54.04
2023-05-14T10:01:55.037Z,53.67
2023-05-14T10:02:55.072Z,54.66
2023-05-14T10:03:55.071Z,54.72
2023-05-14T10:04:55.065Z,55.29
2023-05-14T10:06:55.027Z,55.81
2023-05-14T10:07:55.059Z,56.60
2023-05-14T10:08:55.130Z,56.57
2023-05-14T10:10:55.072Z,55.73
2023-05-14T10:12:55.069Z,56.65
2023-05-14T10:13:55.052Z,56.65
2023-05-14T10:14:55.115Z,55.46
2023-05-14T10:15:55.097Z,55.91
2023-05-14T10:16:55.139Z,54.38
2023-05-14T10:17:55.131Z,55.68
2023-05-14T10:18:57.153Z,56.15
2023-05-14T10:19:55.076Z,56.15
2023-05-14T10:20:55.092Z,56.81
2023-05-14T10:21:55.126Z,56.03
2023-05-14T10:22:55.150Z,54.91
2023-05-14T10:23:55.105Z,54.74
2023-05-14T10:24:55.072Z,54.74
2023-05-14T10:25:55.154Z,54.47
2023-05-14T10:26:55.136Z,56.10
2023-05-14T10:27:55.148Z,56.50
2023-05-14T10:28:55.126Z,56.69
2023-05-14T10:29:55.121Z,55.56
2023-05-14T10:30:55.180Z,54.79
2023-05-14T10:33:55.158Z,56.14
2023-05-14T10:34:55.116Z,55.07
2023-05-14T10:35:55.173Z,55.86
2023-05-14T10:36:55.116Z,55.33
2023-05-14T10:37:55.091Z,54.23
2023-05-14T10:38:55.112Z,54.23
2023-05-14T10:39:55.124Z,56.21
2023-05-14T10:40:55.196Z,53.49
2023-05-14T10:41:55.152Z,54.67
2023-05-14T10:42:55.127Z,54.67
2023-05-14T10:43:55.149Z,52.59
2023-05-14T10:44:55.108Z,52.59
2023-05-14T10:46:55.180Z,53.63
2023-05-14T10:47:55.154Z,53.63
2023-05-14T10:48:55.156Z,51.68
2023-05-14T10:49:55.151Z,51.68
2023-05-14T10:50:55.224Z,52.95
2023-05-14T10:51:55.166Z,52.95
2023-05-14T10:52:55.217Z,53.34
2023-05-14T10:53:55.179Z,52.66
2023-05-14T10:54:55.193Z,52.08
2023-05-14T10:55:55.140Z,52.08
2023-05-14T10:56:55.194Z,50.67
2023-05-14T10:57:55.154Z,50.67
2023-05-14T10:58:55.173Z,51.22
2023-05-14T10:59:55.241Z,50.94
2023-05-14T11:00:55.220Z,51.80
2023-05-14T11:01:55.245Z,50.90
2023-05-14T11:02:55.251Z,50.54
2023-05-14T11:03:55.207Z,50.54
2023-05-14T11:04:55.226Z,49.78
2023-05-14T11:05:55.202Z,48.79
2023-05-14T11:06:55.226Z,49.99
2023-05-14T11:07:55.221Z,49.24
2023-05-14T11:08:55.183Z,49.24
2023-05-14T11:09:55.246Z,48.64
2023-05-14T11:10:55.238Z,48.39
2023-05-14T11:11:55.205Z,48.39
2023-05-14T11:12:55.204Z,48.59
2023-05-14T11:13:55.259Z,47.34
2023-05-14T11:14:55.283Z,47.34
2023-05-14T11:15:55.256Z,47.30
2023-05-14T11:16:55.269Z,47.30
2023-05-14T11:17:55.351Z,47.81
2023-05-14T11:18:55.312Z,47.15
2023-05-14T11:19:55.213Z,47.15
2023-05-14T11:21:55.242Z,46.84
2023-05-14T11:22:55.265Z,46.85
2023-05-14T11:23:55.267Z,47.31
2023-05-14T11:24:55.247Z,47.31
2023-05-14T11:25:55.334Z,49.08
2023-05-14T11:26:55.300Z,48.48
2023-05-14T11:27:55.286Z,48.24
2023-05-14T11:28:55.264Z,49.55
2023-05-14T11:29:55.241Z,49.55
2023-05-14T11:30:55.262Z,49.83
2023-05-14T11:31:55.315Z,49.82
2023-05-14T11:32:55.372Z,49.48
2023-05-14T11:33:55.257Z,49.48
2023-05-14T11:34:55.270Z,49.73
2023-05-14T11:35:55.281Z,48.69
2023-05-14T11:36:55.249Z,49.47
2023-05-14T11:38:55.299Z,48.97
2023-05-14T11:39:55.350Z,49.02
2023-05-14T11:40:55.306Z,48.86
2023-05-14T11:41:55.325Z,48.71
2023-05-14T11:42:55.293Z,48.71
2023-05-14T11:43:55.345Z,48.47
2023-05-14T11:44:55.332Z,49.01
2023-05-14T11:46:55.324Z,50.62
2023-05-14T11:47:55.330Z,51.25
2023-05-14T11:48:55.329Z,51.79
2023-05-14T11:49:55.356Z,52.21
2023-05-14T11:50:55.279Z,52.21
2023-05-14T11:51:55.316Z,53.10
2023-05-14T11:52:55.358Z,53.66
2023-05-14T11:53:55.336Z,51.74
2023-05-14T11:54:55.362Z,52.59
2023-05-14T11:55:55.298Z,52.59
2023-05-14T11:56:55.303Z,52.70
2023-05-14T11:57:55.326Z,52.29
2023-05-14T11:58:55.322Z,50.74
2023-05-14T11:59:55.358Z,51.65
2023-05-14T12:00:55.363Z,52.59
2023-05-14T12:01:55.328Z,52.16
2023-05-14T12:03:55.427Z,51.76
2023-05-14T12:04:55.505Z,51.53
2023-05-14T12:05:55.392Z,52.29
2023-05-14T12:06:55.345Z,52.29
2023-05-14T12:08:55.377Z,50.38
2023-05-14T12:09:55.397Z,50.38
2023-05-14T12:10:55.394Z,50.63
2023-05-14T12:11:55.358Z,50.93
2023-05-14T12:12:55.397Z,49.52
2023-05-14T12:13:55.364Z,50.45
2023-05-14T12:14:55.386Z,50.46
2023-05-14T12:15:55.457Z,50.87
2023-05-14T12:16:55.390Z,49.76
2023-05-14T12:17:55.416Z,50.71
2023-05-14T12:18:55.420Z,50.71
2023-05-14T12:19:55.402Z,50.42
2023-05-14T12:20:55.394Z,50.82
2023-05-14T12:21:55.350Z,49.88
2023-05-14T12:22:55.387Z,50.68
2023-05-14T12:23:55.396Z,50.68
2023-05-14T12:24:55.407Z,51.24
2023-05-14T12:25:55.409Z,51.44
2023-05-14T12:26:55.442Z,52.19
2023-05-14T12:27:55.401Z,53.02
2023-05-14T12:28:55.407Z,52.88
2023-05-14T12:29:55.396Z,53.44
2023-05-14T12:30:55.433Z,54.01
2023-05-14T12:31:55.472Z,54.57
2023-05-14T12:32:55.444Z,54.81
2023-05-14T12:33:55.434Z,55.64
2023-05-14T12:34:55.417Z,55.88
2023-05-14T12:35:55.434Z,56.24
2023-05-14T12:36:55.481Z,57.18
2023-05-14T12:37:55.385Z,57.64
2023-05-14T12:38:55.442Z,58.37
2023-05-14T12:40:55.441Z,58.50
2023-05-14T12:41:55.454Z,59.47
2023-05-14T12:42:56.678Z,59.61
2023-05-14T12:43:55.489Z,59.51
2023-05-14T12:44:55.478Z,58.48
2023-05-14T12:46:55.550Z,58.57
2023-05-14T12:47:55.486Z,58.81
2023-05-14T12:49:55.458Z,58.26
2023-05-14T12:50:55.457Z,58.26
2023-05-14T12:52:04.493Z,57.50
2023-05-14T12:52:55.461Z,59.06
2023-05-14T12:55:55.474Z,59.12
2023-05-14T12:56:55.501Z,57.54
2023-05-14T12:57:55.497Z,57.59
2023-05-14T12:58:55.444Z,57.19
2023-05-14T12:59:55.508Z,57.42
2023-05-14T13:02:55.561Z,59.60
2023-05-14T13:03:55.519Z,59.07
2023-05-14T13:04:55.544Z,58.51
2023-05-14T13:05:55.498Z,58.09
2023-05-14T13:06:55.501Z,59.44
2023-05-14T13:07:55.565Z,59.07
2023-05-14T13:08:55.473Z,59.07
2023-05-14T13:09:55.533Z,59.58
2023-05-14T13:10:55.526Z,59.35
2023-05-14T13:11:55.498Z,59.35
2023-05-14T13:12:55.566Z,59.54
2023-05-14T13:13:55.520Z,59.56
2023-05-14T13:14:55.528Z,57.50
2023-05-14T13:15:55.525Z,57.70
2023-05-14T13:16:55.610Z,57.56
2023-05-14T13:17:55.644Z,58.50
2023-05-14T13:18:55.601Z,58.78
2023-05-14T13:19:55.571Z,59.11
2023-05-14T13:20:55.559Z,59.11
2023-05-14T13:21:55.501Z,58.79
2023-05-14T13:22:55.579Z,58.33
2023-05-14T13:23:55.576Z,58.14
2023-05-14T13:24:55.559Z,58.14
2023-05-14T13:25:55.546Z,58.94
2023-05-14T13:26:55.544Z,59.01
2023-05-14T13:27:55.578Z,58.53
2023-05-14T13:28:55.518Z,58.74
2023-05-14T13:29:55.562Z,59.36
2023-05-14T13:30:55.560Z,58.22
2023-05-14T13:31:55.550Z,57.87
2023-05-14T13:32:55.635Z,58.17
2023-05-14T13:33:55.603Z,57.71
2023-05-14T13:34:55.589Z,58.11
2023-05-14T13:35:55.631Z,58.11
2023-05-14T13:36:55.594Z,58.03
2023-05-14T13:37:55.578Z,57.79
2023-05-14T13:38:55.554Z,56.41
2023-05-14T13:39:55.578Z,57.27
2023-05-14T13:40:55.602Z,56.73
2023-05-14T13:41:55.626Z,56.73
2023-05-14T13:44:55.563Z,56.51
2023-05-14T13:45:55.634Z,56.43
2023-05-14T13:46:55.672Z,56.94
2023-05-14T13:47:55.666Z,56.94
2023-05-14T13:48:55.642Z,55.58
2023-05-14T13:49:55.626Z,56.77
2023-05-14T13:50:55.606Z,56.77
2023-05-14T13:51:55.616Z,56.59
2023-05-14T13:52:55.606Z,56.59
2023-05-14T13:53:55.991Z,56.40
2023-05-14T13:54:55.614Z,54.40
2023-05-14T13:55:55.614Z,54.93
2023-05-14T13:56:55.630Z,55.72
2023-05-14T13:57:55.616Z,55.72
2023-05-14T13:58:55.673Z,55.39
2023-05-14T14:00:55.637Z,54.49
2023-05-14T14:01:55.702Z,54.49
2023-05-14T14:02:55.729Z,55.36
2023-05-14T14:03:55.691Z,56.51
2023-05-14T14:04:55.680Z,55.65
2023-05-14T14:05:55.676Z,55.65
2023-05-14T14:06:55.657Z,53.76
2023-05-14T14:08:01.148Z,53.76
2023-05-14T14:08:55.691Z,54.73
2023-05-14T14:09:55.695Z,55.28
2023-05-14T14:10:55.831Z,54.78
2023-05-14T14:11:55.686Z,54.34
2023-05-14T14:12:55.698Z,53.14
2023-05-14T14:13:55.704Z,53.14
2023-05-14T14:14:55.686Z,52.70
2023-05-14T14:15:55.701Z,52.28
2023-05-14T14:16:55.702Z,51.79
2023-05-14T14:17:55.701Z,52.56
2023-05-14T14:18:55.641Z,52.56
2023-05-14T14:19:55.732Z,53.38
2023-05-14T14:20:55.719Z,53.21
2023-05-14T14:21:55.657Z,52.28
2023-05-14T14:23:55.695Z,53.25
2023-05-14T14:24:55.671Z,52.17
2023-05-14T14:25:55.762Z,52.18
2023-05-14T14:26:55.676Z,53.39
2023-05-14T14:27:55.754Z,52.58
2023-05-14T14:28:55.706Z,52.44
2023-05-14T14:29:55.694Z,51.95
2023-05-14T14:30:55.735Z,50.68
2023-05-14T14:31:55.786Z,50.79
2023-05-14T14:32:55.765Z,51.53
2023-05-14T14:33:55.786Z,51.42
2023-05-14T14:34:55.724Z,50.55
2023-05-14T14:35:55.757Z,50.29
2023-05-14T14:36:55.703Z,50.29
2023-05-14T14:37:55.755Z,50.39
2023-05-14T14:38:55.753Z,50.21
2023-05-14T14:39:55.749Z,50.74
2023-05-14T14:40:55.746Z,50.15
2023-05-14T14:41:55.756Z,50.15
2023-05-14T14:42:55.776Z,50.23
2023-05-14T14:43:55.737Z,49.71
2023-05-14T14:44:55.736Z,49.71
2023-05-14T14:45:55.760Z,50.22
2023-05-14T14:46:55.785Z,50.52
2023-05-14T14:47:55.789Z,50.83
2023-05-14T14:48:55.757Z,51.36
2023-05-14T14:49:55.751Z,51.25
2023-05-14T14:50:55.803Z,51.12
2023-05-14T14:51:55.765Z,51.02
2023-05-14T14:52:55.807Z,51.13
2023-05-14T14:53:55.741Z,52.08
2023-05-14T14:54:55.783Z,53.16
2023-05-14T14:55:55.802Z,52.79
2023-05-14T14:56:55.808Z,55.00
2023-05-14T14:57:55.738Z,55.00
2023-05-14T14:58:55.802Z,56.22
2023-05-14T14:59:55.798Z,58.30
2023-05-14T15:00:55.868Z,57.73
2023-05-14T15:01:55.825Z,57.73
2023-05-14T15:02:55.835Z,57.82
2023-05-14T15:03:55.833Z,58.84
2023-05-14T15:04:55.877Z,58.85
2023-05-14T15:05:55.833Z,58.25
2023-05-14T15:06:55.853Z,59.20
2023-05-14T15:07:55.818Z,58.65
2023-05-14T15:08:55.871Z,59.59
2023-05-14T15:09:55.823Z,59.32
2023-05-14T15:10:55.795Z,59.32
2023-05-14T15:11:55.812Z,58.48
2023-05-14T15:12:55.856Z,59.65
2023-05-14T15:13:55.828Z,57.47